Terminal Aerodrome Forecast
Issued by NWS

Home | Current Version | Previous Version | Text Only | Print | Product List | Glossary On
Versions: 1 2 3 4 5 6 7 8 9 10 11 12 13 14 15
415
FTAK31 PAJN 241135
TAFAWG
TAF
PAWG 241135Z 2412/2512 VRB04KT P6SM -SHRA SCT025 OVC035
      TEMPO 2412/2416 4SM -SHRA BR SCT015 BKN025 OVC030
     FM241600 VRB03KT 6SM BR VCSH SCT015 OVC025
     FM241800 14004KT P6SM VCSH OVC040
     FM250700 VRB03KT 6SM BR FEW003 BKN015 OVC025
     FM251000 00000KT 2SM BR OVC001
      AMD LTD TO CLD VIS AND WIND 2412/2415=

USA.gov is the U.S. government's official web portal to all federal, state and local government web resources and services.